Time;durP1;ratioP1;P1;durP2;ratioP2;P2;SDS_P1;SDS_P2;PMS_P1;PMS_P2;Temp;Humidity;BMP_temperature;BMP_pressure;BME280_temperature;BME280_humidity;BME280_pressure;Samples;Min_cycle;Max_cycle;Signal;HPM_P1;HPM_P2
2022/12/01 00:00:44;;;;;;;45.33;27.33;;;6.20;99.90;;;;;;5095577;28;20176;-74
2022/12/01 00:03:09;;;;;;;41.40;26.27;;;6.20;99.90;;;;;;5095439;28;20251;-73
2022/12/01 00:05:35;;;;;;;42.00;27.33;;;6.20;99.90;;;;;;5094994;28;20172;-73
2022/12/01 00:08:01;;;;;;;37.73;23.20;;;6.20;99.90;;;;;;5095431;28;20615;-74
2022/12/01 00:10:27;;;;;;;38.93;25.13;;;6.20;99.90;;;;;;5095308;28;20260;-75
2022/12/01 00:12:55;;;;;;;38.50;25.17;;;6.20;99.90;;;;;;5095338;28;20199;-74
2022/12/01 00:15:21;;;;;;;38.77;24.70;;;6.30;99.90;;;;;;5095097;28;20305;-74
2022/12/01 00:17:48;;;;;;;34.77;22.57;;;6.30;99.90;;;;;;5095374;28;20240;-74
2022/12/01 00:20:15;;;;;;;37.77;22.57;;;6.30;99.90;;;;;;5094683;28;20203;-74
2022/12/01 00:22:47;;;;;;;36.93;23.23;;;6.30;99.90;;;;;;5095118;28;20255;-73
2022/12/01 00:25:14;;;;;;;36.20;23.07;;;6.30;99.90;;;;;;5076644;28;20572;-73
2022/12/01 00:27:40;;;;;;;36.77;23.63;;;6.30;99.90;;;;;;5095007;28;20223;-74
2022/12/01 00:30:08;;;;;;;36.30;23.00;;;6.30;99.90;;;;;;5094972;28;20280;-74
2022/12/01 00:32:34;;;;;;;34.60;22.50;;;6.30;99.90;;;;;;5094751;28;20249;-74
2022/12/01 00:35:00;;;;;;;38.40;25.03;;;6.30;99.90;;;;;;5072746;28;20294;-74
2022/12/01 00:37:27;;;;;;;34.17;23.97;;;6.30;99.90;;;;;;5074576;28;20183;-73
2022/12/01 00:39:53;;;;;;;39.47;25.87;;;6.40;99.90;;;;;;5074370;28;20240;-74
2022/12/01 00:42:19;;;;;;;38.57;24.77;;;6.30;99.90;;;;;;5074395;28;20222;-74
2022/12/01 00:44:46;;;;;;;34.53;22.93;;;6.40;99.90;;;;;;5074351;28;20184;-74
2022/12/01 00:47:12;;;;;;;37.90;25.00;;;6.40;99.90;;;;;;5073912;28;20215;-74
2022/12/01 00:49:37;;;;;;;35.73;24.00;;;6.40;99.90;;;;;;5074101;28;20644;-74
2022/12/01 00:52:03;;;;;;;35.77;22.67;;;6.40;99.90;;;;;;5074253;28;20256;-73
2022/12/01 00:54:31;;;;;;;35.33;24.93;;;6.40;99.90;;;;;;5074260;28;20169;-73
2022/12/01 00:56:57;;;;;;;36.00;24.30;;;6.40;99.90;;;;;;5074246;28;20635;-74
2022/12/01 00:59:23;;;;;;;38.53;26.17;;;6.50;99.90;;;;;;5074139;28;20279;-74
2022/12/01 01:01:49;;;;;;;40.97;25.53;;;6.60;99.90;;;;;;5072875;28;20268;-75
2022/12/01 01:04:14;;;;;;;35.40;24.57;;;6.60;99.90;;;;;;5073632;28;20168;-75
2022/12/01 01:06:42;;;;;;;38.33;24.37;;;6.60;99.90;;;;;;5074174;28;20219;-74
2022/12/01 01:09:08;;;;;;;39.47;24.17;;;6.70;99.90;;;;;;5073897;28;20164;-73
2022/12/01 01:11:33;;;;;;;35.57;23.80;;;6.70;99.90;;;;;;5073906;28;20168;-73
2022/12/01 01:13:59;;;;;;;37.37;23.90;;;6.60;99.90;;;;;;5073809;28;20173;-73
2022/12/01 01:16:25;;;;;;;37.70;22.87;;;6.50;99.90;;;;;;5089122;28;20169;-74
2022/12/01 01:18:51;;;;;;;40.97;24.87;;;6.40;99.90;;;;;;5073262;28;20247;-74
2022/12/01 01:21:19;;;;;;;39.43;24.53;;;6.30;99.90;;;;;;5089308;28;20239;-74
2022/12/01 01:23:46;;;;;;;41.37;24.77;;;6.20;99.90;;;;;;5073731;28;20196;-74
2022/12/01 01:26:16;;;;;;;37.37;23.33;;;6.20;99.90;;;;;;5073673;28;20196;-74
2022/12/01 01:28:41;;;;;;;38.13;24.73;;;6.20;99.90;;;;;;5073465;28;20172;-74
2022/12/01 01:31:09;;;;;;;41.03;26.33;;;6.20;99.90;;;;;;5073646;28;20165;-73
2022/12/01 01:33:35;;;;;;;42.20;25.67;;;6.30;99.90;;;;;;5079162;28;20216;-74
2022/12/01 01:36:02;;;;;;;43.13;26.43;;;6.30;99.90;;;;;;5093763;28;20247;-73
2022/12/01 01:38:28;;;;;;;41.27;26.50;;;6.30;99.90;;;;;;5093703;28;20203;-74
2022/12/01 01:40:54;;;;;;;40.17;26.17;;;6.20;99.90;;;;;;5093730;28;20176;-74
2022/12/01 01:43:44;;;;;;;43.43;27.20;;;6.20;99.90;;;;;;5093629;28;20160;-74
2022/12/01 01:46:14;;;;;;;39.10;24.90;;;6.30;99.90;;;;;;5093536;28;20207;-74
2022/12/01 01:48:42;;;;;;;40.17;25.37;;;6.20;99.90;;;;;;5093526;28;20168;-74
2022/12/01 01:51:09;;;;;;;38.33;25.87;;;6.20;99.90;;;;;;5093608;28;20251;-74
2022/12/01 01:53:35;;;;;;;37.30;22.83;;;6.30;99.90;;;;;;5093452;28;20208;-74
2022/12/01 01:56:02;;;;;;;38.27;23.57;;;6.30;99.90;;;;;;5093365;28;20230;-74
2022/12/01 01:58:28;;;;;;;39.87;22.87;;;6.20;99.90;;;;;;5075202;28;20199;-74
2022/12/01 02:00:54;;;;;;;38.53;24.70;;;6.00;99.90;;;;;;5093065;28;20221;-73
2022/12/01 02:03:20;;;;;;;41.73;25.30;;;6.00;99.90;;;;;;5093190;28;20539;-74
2022/12/01 02:05:46;;;;;;;39.20;24.40;;;6.10;99.90;;;;;;5093231;28;20639;-75
2022/12/01 02:08:12;;;;;;;44.67;27.10;;;6.10;99.90;;;;;;5093414;28;20210;-73
2022/12/01 02:10:58;;;;;;;44.80;27.70;;;6.10;99.90;;;;;;5093401;28;20179;-73
2022/12/01 02:13:42;;;;;;;47.23;29.20;;;6.20;99.90;;;;;;5092138;28;20658;-73
2022/12/01 02:16:27;;;;;;;49.37;30.50;;;6.30;99.90;;;;;;5092916;28;20195;-74
2022/12/01 02:19:27;;;;;;;48.40;29.83;;;6.40;99.90;;;;;;5092990;28;20670;-74
2022/12/01 02:21:52;;;;;;;52.50;31.80;;;6.50;99.90;;;;;;5093257;28;20168;-74
2022/12/01 02:24:55;;;;;;;51.50;30.60;;;6.30;99.90;;;;;;5093168;28;20171;-73
2022/12/01 02:27:39;;;;;;;47.57;30.40;;;6.30;99.90;;;;;;5091740;28;20270;-74
2022/12/01 02:30:15;;;;;;;47.10;28.47;;;6.30;99.90;;;;;;5093176;28;20168;-74
2022/12/01 02:33:26;;;;;;;52.40;30.53;;;6.10;99.90;;;;;;5093196;28;20176;-74
2022/12/01 02:36:02;;;;;;;46.97;30.20;;;6.20;99.90;;;;;;5069520;28;20200;-74
2022/12/01 02:38:31;;;;;;;52.57;31.23;;;6.40;99.90;;;;;;5093009;28;20211;-74
2022/12/01 02:41:21;;;;;;;48.70;29.80;;;6.30;99.90;;;;;;5093143;28;20175;-74
2022/12/01 02:43:57;;;;;;;48.63;30.27;;;6.30;99.90;;;;;;5093032;28;20171;-73
2022/12/01 02:46:30;;;;;;;44.30;28.83;;;6.20;99.90;;;;;;5092645;28;20188;-75
2022/12/01 02:48:59;;;;;;;47.40;28.43;;;6.30;99.90;;;;;;5091698;28;20631;-74
2022/12/01 02:51:31;;;;;;;49.20;29.73;;;6.40;99.90;;;;;;5093064;28;20168;-74
2022/12/01 02:53:58;;;;;;;52.97;31.47;;;6.30;99.90;;;;;;5092922;28;20616;-74
2022/12/01 02:56:24;;;;;;;57.17;32.20;;;6.20;99.90;;;;;;5093221;28;20641;-74
2022/12/01 02:58:50;;;;;;;52.27;30.37;;;6.00;99.90;;;;;;5093160;28;20196;-73
2022/12/01 03:01:43;;;;;;;54.00;31.50;;;5.90;99.90;;;;;;5091302;28;20156;-74
2022/12/01 03:04:36;;;;;;;54.77;32.40;;;5.90;99.90;;;;;;5092835;28;20168;-73
2022/12/01 03:07:15;;;;;;;54.67;30.87;;;6.00;99.90;;;;;;5092825;28;20172;-73
2022/12/01 03:09:50;;;;;;;57.20;32.30;;;5.90;99.90;;;;;;5092821;28;20191;-73
2022/12/01 03:12:40;;;;;;;57.33;30.73;;;6.00;99.90;;;;;;5096287;28;20208;-74
2022/12/01 03:15:12;;;;;;;55.27;31.83;;;6.00;99.90;;;;;;5096003;28;20164;-73
2022/12/01 03:17:48;;;;;;;58.87;32.80;;;5.90;99.90;;;;;;5096463;28;20168;-73
2022/12/01 03:20:14;;;;;;;50.97;30.63;;;5.90;99.90;;;;;;5096269;28;20200;-73
2022/12/01 03:22:51;;;;;;;56.00;31.57;;;5.90;99.90;;;;;;5096348;28;20179;-73
2022/12/01 03:25:18;;;;;;;56.47;32.40;;;5.90;99.90;;;;;;5096200;28;20229;-73
2022/12/01 03:27:47;;;;;;;53.80;32.37;;;6.00;99.90;;;;;;5096356;28;20168;-74
2022/12/01 03:30:13;;;;;;;53.57;30.97;;;5.90;99.90;;;;;;5095833;28;20164;-74
2022/12/01 03:32:50;;;;;;;59.00;31.80;;;6.00;99.90;;;;;;5096283;28;20554;-74
2022/12/01 03:35:21;;;;;;;55.17;32.57;;;5.90;99.90;;;;;;5095907;28;20228;-74
2022/12/01 03:38:07;;;;;;;57.73;32.17;;;5.80;99.90;;;;;;5094607;28;20176;-73
2022/12/01 03:40:36;;;;;;;56.53;33.03;;;5.80;99.90;;;;;;5095857;28;20179;-74
2022/12/01 03:43:09;;;;;;;58.67;32.43;;;5.80;99.90;;;;;;5095642;28;20196;-74
2022/12/01 03:45:43;;;;;;;55.77;32.33;;;5.90;99.90;;;;;;5095661;28;20179;-74
2022/12/01 03:48:09;;;;;;;55.93;31.03;;;6.00;99.90;;;;;;5095914;28;20164;-74
2022/12/01 03:50:50;;;;;;;53.63;31.40;;;6.10;99.90;;;;;;5095563;28;20508;-74
2022/12/01 03:53:24;;;;;;;55.30;32.10;;;6.00;99.90;;;;;;5095841;28;20164;-73
2022/12/01 03:56:01;;;;;;;57.93;31.37;;;6.00;99.90;;;;;;5095516;28;20192;-73
2022/12/01 03:58:33;;;;;;;61.60;33.77;;;5.90;99.90;;;;;;5095285;28;20203;-73
2022/12/01 04:01:01;;;;;;;56.30;31.80;;;5.90;99.90;;;;;;5095458;28;20187;-73
2022/12/01 04:03:27;;;;;;;57.57;32.93;;;6.00;99.90;;;;;;5095554;28;20168;-74
2022/12/01 04:05:52;;;;;;;56.63;32.00;;;6.00;99.90;;;;;;5095403;28;20164;-74
2022/12/01 04:08:18;;;;;;;56.27;30.80;;;6.10;99.90;;;;;;5095414;28;20168;-74
2022/12/01 04:10:44;;;;;;;54.17;29.77;;;6.20;99.90;;;;;;5093842;28;20587;-74
2022/12/01 04:13:21;;;;;;;55.90;31.53;;;6.20;99.90;;;;;;5076568;28;20180;-74
2022/12/01 04:15:51;;;;;;;55.63;30.97;;;6.20;99.90;;;;;;5095248;28;20160;-73
2022/12/01 04:18:17;;;;;;;54.57;31.30;;;6.10;99.90;;;;;;5095175;28;20203;-73
2022/12/01 04:20:45;;;;;;;57.03;31.57;;;6.10;99.90;;;;;;5094961;28;20214;-73
2022/12/01 04:23:58;;;;;;;54.07;31.97;;;6.10;99.90;;;;;;5094140;28;20612;-74
2022/12/01 04:26:01;;;;;;;58.43;32.73;;;6.20;99.90;;;;;;5094922;28;20258;-72
2022/12/01 04:28:27;;;;;;;57.23;31.57;;;6.30;99.90;;;;;;5094399;28;20190;-73
2022/12/01 04:30:52;;;;;;;57.27;32.07;;;6.40;99.90;;;;;;5094921;28;20639;-73
2022/12/01 04:33:18;;;;;;;55.07;31.40;;;6.40;99.90;;;;;;5094643;28;20245;-74
2022/12/01 04:35:44;;;;;;;55.13;30.53;;;6.50;99.90;;;;;;5094498;28;20221;-74
2022/12/01 04:38:09;;;;;;;52.70;30.77;;;6.50;99.90;;;;;;5094385;28;20632;-74
2022/12/01 04:40:37;;;;;;;43.53;26.50;;;6.50;99.90;;;;;;5094893;28;20183;-74
2022/12/01 04:43:03;;;;;;;45.97;27.63;;;6.40;99.90;;;;;;5094125;28;20176;-74
2022/12/01 04:45:28;;;;;;;41.00;25.27;;;6.40;99.90;;;;;;5094537;28;20202;-74
2022/12/01 04:47:54;;;;;;;42.90;25.70;;;6.30;99.90;;;;;;5094412;28;20175;-73
2022/12/01 04:50:20;;;;;;;48.60;26.70;;;6.20;99.90;;;;;;5094540;28;20175;-74
2022/12/01 04:52:45;;;;;;;42.60;25.27;;;6.30;99.90;;;;;;5094194;28;20187;-74
2022/12/01 04:55:14;;;;;;;43.87;25.50;;;6.40;99.90;;;;;;5093637;28;20171;-74
2022/12/01 04:57:40;;;;;;;43.10;25.03;;;6.50;99.90;;;;;;5094310;28;20168;-74
2022/12/01 05:00:11;;;;;;;44.90;24.47;;;6.40;99.90;;;;;;5094207;28;20683;-73
2022/12/01 05:02:38;;;;;;;45.27;25.00;;;6.50;99.90;;;;;;5094419;28;20165;-74
2022/12/01 05:05:05;;;;;;;46.23;25.53;;;6.60;99.90;;;;;;5093973;28;20171;-73
2022/12/01 05:07:31;;;;;;;45.33;24.07;;;6.60;99.90;;;;;;5094204;28;20180;-74
2022/12/01 05:09:57;;;;;;;43.13;24.40;;;6.60;99.90;;;;;;5093542;28;20163;-74
2022/12/01 05:12:23;;;;;;;42.23;22.80;;;6.70;99.90;;;;;;5094012;28;20614;-74
2022/12/01 05:14:49;;;;;;;44.03;24.60;;;6.70;99.90;;;;;;5093714;28;20171;-74
2022/12/01 05:17:14;;;;;;;44.30;24.30;;;6.60;99.90;;;;;;5094154;28;20668;-73
2022/12/01 05:22:24;;;;;;;46.90;24.80;;;6.70;99.90;;;;;;5093882;28;20661;-74
2022/12/01 05:24:50;;;;;;;44.47;24.50;;;6.70;99.90;;;;;;5074672;28;20168;-73
2022/12/01 05:27:15;;;;;;;47.87;25.00;;;6.60;99.90;;;;;;5093728;28;20258;-74
2022/12/01 05:29:41;;;;;;;44.77;24.43;;;6.50;99.90;;;;;;5093616;28;20172;-73
2022/12/01 05:32:06;;;;;;;44.03;24.93;;;6.50;99.90;;;;;;5093522;28;20534;-74
2022/12/01 05:34:32;;;;;;;44.37;25.13;;;6.50;99.90;;;;;;5092899;28;20212;-74
2022/12/01 05:36:57;;;;;;;43.97;24.07;;;6.60;99.90;;;;;;5093392;28;20169;-74
2022/12/01 05:39:23;;;;;;;47.50;25.07;;;6.50;99.90;;;;;;5092696;28;20208;-73
2022/12/01 05:41:48;;;;;;;47.07;25.03;;;6.40;99.90;;;;;;5093105;28;20164;-73
2022/12/01 05:44:14;;;;;;;48.77;26.57;;;6.40;99.90;;;;;;5093308;28;20174;-74
2022/12/01 05:46:40;;;;;;;47.07;25.13;;;6.50;99.90;;;;;;5093233;28;20237;-74
2022/12/01 05:49:05;;;;;;;49.30;25.30;;;6.60;99.90;;;;;;5093406;28;20168;-74
2022/12/01 05:51:31;;;;;;;50.93;26.70;;;6.70;99.90;;;;;;5092723;28;20167;-73
2022/12/01 05:53:58;;;;;;;44.13;25.20;;;6.70;99.90;;;;;;5092330;28;20264;-73
2022/12/01 05:56:24;;;;;;;46.47;26.60;;;6.60;99.90;;;;;;5093029;28;20700;-74
2022/12/01 05:58:50;;;;;;;49.37;26.30;;;6.60;99.90;;;;;;5093164;28;20204;-74
2022/12/01 06:01:15;;;;;;;46.53;26.27;;;6.50;99.90;;;;;;5092841;28;20176;-74
2022/12/01 06:03:41;;;;;;;48.50;25.67;;;6.50;99.90;;;;;;5092941;28;20171;-74
2022/12/01 06:06:06;;;;;;;48.50;25.20;;;6.50;99.90;;;;;;5092812;28;20239;-75
2022/12/01 06:08:32;;;;;;;46.53;25.23;;;6.50;99.90;;;;;;5092604;28;20171;-74
2022/12/01 06:10:58;;;;;;;46.30;26.83;;;6.50;99.90;;;;;;5092446;28;20175;-74
2022/12/01 06:13:23;;;;;;;48.97;27.00;;;6.50;99.90;;;;;;5092249;28;20591;-73
2022/12/01 06:15:59;;;;;;;49.40;26.70;;;6.40;99.90;;;;;;5091078;28;20178;-74
2022/12/01 06:18:26;;;;;;;49.50;26.70;;;6.60;99.90;;;;;;5092361;28;20164;-73
2022/12/01 06:20:52;;;;;;;47.97;27.00;;;6.50;99.90;;;;;;5092917;28;20204;-73
2022/12/01 06:23:17;;;;;;;50.43;27.00;;;6.50;99.90;;;;;;5092050;28;20187;-74
2022/12/01 06:25:43;;;;;;;48.83;27.27;;;6.60;99.90;;;;;;5092718;28;20168;-74
2022/12/01 06:28:09;;;;;;;48.90;26.63;;;6.60;99.90;;;;;;5092104;28;20205;-74
2022/12/01 06:30:34;;;;;;;45.67;26.27;;;6.70;99.90;;;;;;5092213;28;20169;-73
2022/12/01 06:33:00;;;;;;;47.00;26.40;;;6.70;99.90;;;;;;5092181;28;20685;-74
2022/12/01 06:35:25;;;;;;;50.90;27.67;;;6.70;99.90;;;;;;5091834;28;20576;-74
2022/12/01 06:37:53;;;;;;;50.23;25.83;;;6.80;99.90;;;;;;5091992;28;20546;-74
2022/12/01 06:40:19;;;;;;;50.00;26.17;;;6.90;99.90;;;;;;5091515;28;20207;-75
2022/12/01 06:42:44;;;;;;;45.37;25.87;;;6.90;99.90;;;;;;5091920;28;20670;-74
2022/12/01 06:45:10;;;;;;;49.27;26.17;;;7.00;99.90;;;;;;5091363;28;20172;-74
2022/12/01 06:47:36;;;;;;;51.23;25.10;;;7.00;99.90;;;;;;5095610;28;20174;-74
2022/12/01 06:50:04;;;;;;;44.17;24.23;;;7.00;99.90;;;;;;5096083;28;20164;-74
2022/12/01 06:52:30;;;;;;;47.07;24.97;;;6.80;99.90;;;;;;5095465;28;20168;-74
2022/12/01 06:54:55;;;;;;;51.57;25.40;;;6.80;99.90;;;;;;5094441;28;20175;-74
2022/12/01 06:57:21;;;;;;;46.20;24.97;;;6.80;99.90;;;;;;5095521;28;20164;-75
2022/12/01 06:59:46;;;;;;;49.97;26.17;;;6.70;99.90;;;;;;5094631;28;20254;-75
2022/12/01 07:02:12;;;;;;;44.57;24.60;;;6.70;99.90;;;;;;5095759;28;20524;-75
2022/12/01 07:04:38;;;;;;;48.57;25.63;;;6.70;99.90;;;;;;5095096;28;20171;-74
2022/12/01 07:07:04;;;;;;;43.53;25.03;;;6.70;99.90;;;;;;5076621;28;20229;-74
2022/12/01 07:09:30;;;;;;;49.03;25.73;;;6.80;99.90;;;;;;5096271;28;20182;-74
2022/12/01 07:11:55;;;;;;;53.80;27.47;;;6.90;99.90;;;;;;5094915;28;20260;-75
2022/12/01 07:14:23;;;;;;;50.83;27.60;;;6.90;99.90;;;;;;5096038;28;20188;-75
2022/12/01 07:16:48;;;;;;;49.53;26.50;;;7.00;99.90;;;;;;5094961;28;20223;-74
2022/12/01 07:19:14;;;;;;;47.20;25.50;;;6.90;99.90;;;;;;5095224;28;20243;-74
2022/12/01 07:21:40;;;;;;;49.37;25.67;;;6.90;99.90;;;;;;5095194;28;20251;-75
2022/12/01 07:24:06;;;;;;;49.47;25.13;;;6.90;99.90;;;;;;5095456;28;20229;-74
2022/12/01 07:26:31;;;;;;;43.90;24.73;;;6.80;99.90;;;;;;5094216;28;20171;-74
2022/12/01 07:28:57;;;;;;;46.60;25.73;;;6.70;99.90;;;;;;5094075;28;20634;-74
2022/12/01 07:31:23;;;;;;;49.43;27.50;;;6.80;99.90;;;;;;5094821;28;20168;-74
2022/12/01 07:33:48;;;;;;;49.53;25.93;;;6.90;99.90;;;;;;5094784;28;20628;-74
2022/12/01 07:36:14;;;;;;;49.50;26.60;;;7.00;99.90;;;;;;5094369;28;20228;-74
2022/12/01 07:38:40;;;;;;;51.33;25.73;;;7.00;99.90;;;;;;5095186;28;20195;-75
2022/12/01 07:41:11;;;;;;;43.97;25.07;;;7.00;99.90;;;;;;5094970;28;20662;-72
2022/12/01 07:43:37;;;;;;;49.00;25.83;;;7.10;99.90;;;;;;5094851;28;20203;-73
2022/12/01 07:46:18;;;;;;;50.73;26.40;;;6.90;99.90;;;;;;5093213;28;20249;-74
2022/12/01 07:48:44;;;;;;;44.60;24.43;;;7.00;99.90;;;;;;5094468;28;20164;-73
2022/12/01 07:51:12;;;;;;;49.13;26.83;;;7.10;99.90;;;;;;5075790;28;20168;-74
2022/12/01 07:53:38;;;;;;;42.10;25.40;;;7.10;99.90;;;;;;5094800;28;20172;-75
2022/12/01 07:56:04;;;;;;;45.97;26.00;;;7.10;99.90;;;;;;5093363;28;20239;-74
2022/12/01 07:58:31;;;;;;;44.87;25.67;;;7.10;99.90;;;;;;5093289;28;20172;-75
2022/12/01 08:00:57;;;;;;;45.53;25.77;;;7.00;99.90;;;;;;5093914;28;20279;-75
2022/12/01 08:03:22;;;;;;;41.30;23.87;;;7.10;99.90;;;;;;5093024;28;20574;-76
2022/12/01 08:05:58;;;;;;;45.73;25.83;;;6.90;99.90;;;;;;5094247;28;20229;-74
2022/12/01 08:08:25;;;;;;;47.03;25.03;;;6.70;99.90;;;;;;5094472;28;20635;-74
2022/12/01 08:10:51;;;;;;;50.63;24.80;;;6.70;99.90;;;;;;5094170;28;20168;-74
2022/12/01 08:13:17;;;;;;;50.90;26.70;;;6.60;99.90;;;;;;5094142;28;20172;-73
2022/12/01 08:15:43;;;;;;;45.23;24.93;;;6.70;99.90;;;;;;5093991;28;20253;-74
2022/12/01 08:18:09;;;;;;;40.53;24.37;;;6.80;99.90;;;;;;5094274;28;20172;-74
2022/12/01 08:20:34;;;;;;;39.73;23.43;;;6.80;99.90;;;;;;5093590;28;20204;-74
2022/12/01 08:23:01;;;;;;;49.23;26.40;;;6.90;99.90;;;;;;5094292;28;20254;-72
2022/12/01 08:25:27;;;;;;;45.03;26.00;;;6.80;99.90;;;;;;5093680;28;20298;-74
2022/12/01 08:27:53;;;;;;;41.30;24.13;;;6.90;99.90;;;;;;5094021;28;20191;-75
2022/12/01 08:30:19;;;;;;;46.93;24.87;;;6.90;99.90;;;;;;5093843;28;20624;-74
2022/12/01 08:32:45;;;;;;;43.97;25.37;;;6.90;99.90;;;;;;5093570;28;20688;-74
2022/12/01 08:35:11;;;;;;;44.27;24.73;;;6.80;99.90;;;;;;5093688;28;20224;-74
2022/12/01 08:37:36;;;;;;;44.13;25.57;;;6.80;99.90;;;;;;5094366;28;20175;-74
2022/12/01 08:40:02;;;;;;;45.70;25.63;;;6.80;99.90;;;;;;5093151;28;20663;-76
2022/12/01 08:42:28;;;;;;;42.93;24.77;;;6.80;99.90;;;;;;5093808;28;20612;-73
2022/12/01 08:44:53;;;;;;;48.17;25.50;;;6.80;99.90;;;;;;5093868;28;20164;-74
2022/12/01 08:47:19;;;;;;;46.03;24.40;;;6.80;99.90;;;;;;5093334;28;20191;-74
2022/12/01 08:49:44;;;;;;;54.57;26.70;;;6.70;99.90;;;;;;5093626;28;20170;-74
2022/12/01 08:52:10;;;;;;;52.03;25.77;;;6.70;99.90;;;;;;5093633;28;20172;-73
2022/12/01 08:54:36;;;;;;;48.33;25.70;;;6.80;99.90;;;;;;5093728;28;20535;-73
2022/12/01 08:57:01;;;;;;;44.27;26.63;;;6.80;99.90;;;;;;5093050;28;20179;-74
2022/12/01 08:59:27;;;;;;;44.83;25.00;;;6.90;99.90;;;;;;5093172;28;20207;-75
2022/12/01 09:01:52;;;;;;;42.03;25.40;;;6.90;99.90;;;;;;5091966;28;20171;-74
2022/12/01 09:04:20;;;;;;;45.37;26.20;;;6.90;99.90;;;;;;5090277;28;20658;-74
2022/12/01 09:06:47;;;;;;;45.10;25.30;;;6.80;99.90;;;;;;5092124;28;20159;-75
2022/12/01 09:09:18;;;;;;;43.40;24.33;;;6.80;99.90;;;;;;5092743;28;20179;-74
2022/12/01 09:11:45;;;;;;;41.57;23.73;;;6.70;99.90;;;;;;5093552;28;20168;-75
2022/12/01 09:14:13;;;;;;;42.07;24.10;;;6.70;99.90;;;;;;5093252;28;20665;-74
2022/12/01 09:16:40;;;;;;;42.20;25.03;;;6.70;99.90;;;;;;5093217;28;20228;-74
2022/12/01 09:19:05;;;;;;;51.20;25.13;;;6.80;99.90;;;;;;5093286;28;20674;-75
2022/12/01 09:21:33;;;;;;;51.07;26.00;;;6.90;99.90;;;;;;5092988;28;20168;-74
2022/12/01 09:24:00;;;;;;;47.17;25.30;;;7.00;99.90;;;;;;5093330;28;20164;-73
2022/12/01 09:26:27;;;;;;;42.83;25.23;;;7.10;99.90;;;;;;5092799;28;20172;-76
2022/12/01 09:28:56;;;;;;;47.67;25.80;;;7.10;99.90;;;;;;5092352;28;20200;-75
2022/12/01 09:31:24;;;;;;;43.27;25.60;;;7.20;99.90;;;;;;5092658;28;20176;-74
2022/12/01 09:33:58;;;;;;;46.03;26.23;;;7.20;99.90;;;;;;5092090;28;20224;-74
2022/12/01 09:36:24;;;;;;;44.53;26.20;;;7.30;99.90;;;;;;5092079;28;20178;-74
2022/12/01 09:38:50;;;;;;;43.50;24.93;;;7.30;99.90;;;;;;5092834;28;20655;-74
2022/12/01 09:41:26;;;;;;;44.57;26.13;;;7.20;99.90;;;;;;5073604;28;20178;-74
2022/12/01 09:44:04;;;;;;;42.30;25.30;;;7.20;99.90;;;;;;5074292;28;20175;-75
2022/12/01 09:46:40;;;;;;;46.43;25.33;;;7.10;99.90;;;;;;5092031;28;20221;-74
2022/12/01 09:49:16;;;;;;;45.60;25.70;;;7.00;99.90;;;;;;5092961;28;20159;-74
2022/12/01 09:51:42;;;;;;;45.20;25.47;;;7.00;99.90;;;;;;5092657;28;20164;-74
2022/12/01 09:54:12;;;;;;;44.10;26.53;;;7.00;99.90;;;;;;5092582;28;20221;-75
2022/12/01 09:56:51;;;;;;;49.70;25.97;;;7.00;99.90;;;;;;5092378;28;20156;-74
2022/12/01 09:59:26;;;;;;;48.97;28.10;;;7.00;99.90;;;;;;5074287;28;20203;-75
2022/12/01 10:01:58;;;;;;;46.07;27.23;;;7.00;99.90;;;;;;5092624;28;20266;-74
2022/12/01 10:04:38;;;;;;;46.90;26.67;;;7.00;99.90;;;;;;5091977;28;20172;-74
2022/12/01 10:07:16;;;;;;;46.40;26.97;;;6.90;99.90;;;;;;5092271;28;20171;-73
2022/12/01 10:09:42;;;;;;;47.40;27.40;;;6.90;99.90;;;;;;5092115;28;20183;-75
2022/12/01 10:12:16;;;;;;;46.67;26.13;;;7.00;99.90;;;;;;5092457;28;20174;-73
2022/12/01 10:14:47;;;;;;;42.40;23.70;;;7.00;99.90;;;;;;5092081;28;20237;-75
2022/12/01 10:17:57;;;;;;;39.93;24.10;;;6.90;99.90;;;;;;5092791;28;20182;-74
2022/12/01 10:20:27;;;;;;;48.60;26.43;;;6.80;99.90;;;;;;4991545;28;20242;-74
2022/12/01 10:23:02;;;;;;;43.63;25.50;;;6.90;99.90;;;;;;4994686;28;20687;-74
2022/12/01 10:25:34;;;;;;;48.43;26.70;;;7.00;99.90;;;;;;4994809;28;20269;-75
2022/12/01 10:28:09;;;;;;;45.20;24.93;;;7.00;99.90;;;;;;4977756;28;20189;-75
2022/12/01 10:30:47;;;;;;;48.93;27.13;;;7.00;99.90;;;;;;4994768;28;20241;-76
2022/12/01 10:33:25;;;;;;;42.90;26.40;;;7.00;99.90;;;;;;4994446;28;20203;-75
2022/12/01 10:35:51;;;;;;;47.13;26.90;;;7.00;99.90;;;;;;4994244;28;20179;-75
2022/12/01 10:38:37;;;;;;;45.93;26.17;;;7.20;99.90;;;;;;4994431;28;20179;-75
2022/12/01 10:41:07;;;;;;;41.43;21.90;;;7.20;99.90;;;;;;4994277;28;20270;-75
2022/12/01 10:43:43;;;;;;;46.80;26.83;;;7.20;99.90;;;;;;4993954;28;20194;-74
2022/12/01 10:46:23;;;;;;;44.07;25.43;;;7.20;99.90;;;;;;4993411;28;20226;-74
2022/12/01 10:48:56;;;;;;;37.00;22.30;;;7.20;99.90;;;;;;4994432;28;20171;-74
2022/12/01 10:51:22;;;;;;;43.90;25.50;;;7.10;99.90;;;;;;4977661;28;20619;-74
2022/12/01 10:53:49;;;;;;;42.00;24.93;;;7.20;99.90;;;;;;4994095;28;20171;-74
2022/12/01 10:56:19;;;;;;;44.53;25.83;;;7.30;99.90;;;;;;5022909;28;20249;-74
2022/12/01 10:59:03;;;;;;;41.47;24.47;;;7.30;99.90;;;;;;5095467;28;20245;-75
2022/12/01 11:01:34;;;;;;;40.77;25.47;;;7.30;99.90;;;;;;5095300;28;20270;-75
2022/12/01 11:04:06;;;;;;;39.00;23.17;;;7.30;99.90;;;;;;5095444;28;20198;-74
2022/12/01 11:06:33;;;;;;;39.30;24.03;;;7.30;99.90;;;;;;5096084;28;20168;-74
2022/12/01 11:09:02;;;;;;;37.17;23.27;;;7.40;99.90;;;;;;5095721;28;20218;-73
2022/12/01 11:11:38;;;;;;;42.03;22.97;;;7.30;99.90;;;;;;5095763;28;20168;-74
2022/12/01 11:14:19;;;;;;;42.87;25.63;;;7.30;99.90;;;;;;5094680;28;20167;-73
2022/12/01 11:16:47;;;;;;;44.43;24.83;;;7.30;99.90;;;;;;5095273;28;20595;-74
2022/12/01 11:19:29;;;;;;;40.43;23.30;;;7.40;99.90;;;;;;5077363;28;20207;-74
2022/12/01 11:21:57;;;;;;;40.77;23.27;;;7.30;99.90;;;;;;5095873;28;20176;-75
2022/12/01 11:24:31;;;;;;;39.90;22.13;;;7.30;99.90;;;;;;5095146;28;20181;-74
2022/12/01 11:26:57;;;;;;;39.93;23.07;;;7.30;99.90;;;;;;5095230;28;20168;-73
2022/12/01 11:29:38;;;;;;;43.23;23.47;;;7.30;99.90;;;;;;5077176;28;20168;-74
2022/12/01 11:32:25;;;;;;;38.17;23.60;;;7.40;99.90;;;;;;5077390;28;20704;-73
2022/12/01 11:35:00;;;;;;;38.70;22.43;;;7.70;99.90;;;;;;5094118;28;20295;-74
2022/12/01 11:37:32;;;;;;;38.60;22.70;;;7.60;99.90;;;;;;5076726;28;20250;-73
2022/12/01 11:40:06;;;;;;;37.80;22.07;;;7.70;99.90;;;;;;5093728;28;20597;-73
2022/12/01 11:42:33;;;;;;;39.40;22.40;;;7.80;99.90;;;;;;5094392;28;20226;-73
2022/12/01 11:45:20;;;;;;;36.70;21.73;;;7.80;99.90;;;;;;5094845;28;20191;-74
2022/12/01 11:48:03;;;;;;;36.57;21.77;;;7.70;99.90;;;;;;5076772;28;20176;-74
2022/12/01 11:50:32;;;;;;;34.63;21.37;;;7.70;99.90;;;;;;5095321;28;20171;-73
2022/12/01 11:52:58;;;;;;;38.23;21.87;;;7.80;99.90;;;;;;5077140;28;20239;-75
2022/12/01 11:55:26;;;;;;;39.30;22.17;;;7.90;99.90;;;;;;5094181;28;20305;-73
2022/12/01 11:58:00;;;;;;;33.73;19.97;;;7.90;99.90;;;;;;5094514;28;20164;-74
2022/12/01 12:00:48;;;;;;;36.47;21.77;;;7.90;99.90;;;;;;5094734;28;20347;-73
2022/12/01 12:03:27;;;;;;;34.63;20.37;;;7.80;99.90;;;;;;5094066;28;20175;-74
2022/12/01 12:06:04;;;;;;;33.90;20.97;;;7.80;99.90;;;;;;5094612;28;20164;-73
2022/12/01 12:08:41;;;;;;;32.57;20.93;;;7.70;99.90;;;;;;5095132;28;20187;-72
2022/12/01 12:11:14;;;;;;;35.07;20.83;;;7.60;99.90;;;;;;5093788;28;20685;-73
2022/12/01 12:13:50;;;;;;;38.83;22.17;;;7.70;99.90;;;;;;5076659;28;20171;-73
2022/12/01 12:16:32;;;;;;;34.40;21.47;;;7.70;99.90;;;;;;5094171;28;20167;-75
2022/12/01 12:19:11;;;;;;;35.23;22.13;;;7.80;99.90;;;;;;5094638;28;20183;-75
2022/12/01 12:21:48;;;;;;;40.43;22.70;;;7.90;99.90;;;;;;5076456;28;20258;-74
2022/12/01 12:24:59;;;;;;;36.97;22.60;;;8.10;99.90;;;;;;5094935;28;20247;-74
2022/12/01 12:27:47;;;;;;;37.07;22.13;;;8.10;99.90;;;;;;4992430;28;20215;-74
2022/12/01 12:30:25;;;;;;;37.07;22.33;;;8.00;99.90;;;;;;4993048;28;20176;-74
2022/12/01 12:33:21;;;;;;;38.17;22.13;;;7.90;99.90;;;;;;4993035;28;20193;-74
2022/12/01 12:36:07;;;;;;;38.30;23.97;;;8.00;99.90;;;;;;4976272;28;20258;-74
2022/12/01 12:38:39;;;;;;;40.10;24.20;;;8.20;99.90;;;;;;4991846;28;20183;-74
2022/12/01 12:41:30;;;;;;;32.30;21.00;;;8.50;99.90;;;;;;4973277;28;20183;-74
2022/12/01 12:44:14;;;;;;;35.07;20.77;;;8.50;99.90;;;;;;4991588;28;20229;-74
2022/12/01 12:46:55;;;;;;;35.23;20.53;;;8.10;99.90;;;;;;4992777;28;20199;-75
2022/12/01 12:49:44;;;;;;;33.20;20.53;;;8.00;99.90;;;;;;4991650;28;20179;-75
2022/12/01 12:52:22;;;;;;;38.00;21.63;;;7.90;99.90;;;;;;4992006;28;20203;-74
2022/12/01 12:54:56;;;;;;;36.20;21.40;;;7.80;99.90;;;;;;4991696;28;20175;-74